sensor_id;sensor_type;location;lat;lon;timestamp;P1;durP1;ratioP1;P2;durP2;ratioP2
45522;SDS011;31254;51.680;5.394;2023-04-15T00:01:50;9.95;;;4.13;;
45522;SDS011;31254;51.680;5.394;2023-04-15T00:04:20;9.43;;;4.60;;
45522;SDS011;31254;51.680;5.394;2023-04-15T00:06:52;10.10;;;3.83;;
45522;SDS011;31254;51.680;5.394;2023-04-15T00:09:20;9.23;;;3.97;;
45522;SDS011;31254;51.680;5.394;2023-04-15T00:11:49;11.25;;;4.18;;
45522;SDS011;31254;51.680;5.394;2023-04-15T00:14:16;7.50;;;4.05;;
45522;SDS011;31254;51.680;5.394;2023-04-15T00:16:46;8.15;;;3.75;;
45522;SDS011;31254;51.680;5.394;2023-04-15T00:19:15;12.10;;;3.65;;
45522;SDS011;31254;51.680;5.394;2023-04-15T00:21:42;14.93;;;4.53;;
45522;SDS011;31254;51.680;5.394;2023-04-15T00:24:11;11.98;;;4.38;;
45522;SDS011;31254;51.680;5.394;2023-04-15T00:26:38;7.47;;;3.92;;
45522;SDS011;31254;51.680;5.394;2023-04-15T00:29:05;8.73;;;4.10;;
45522;SDS011;31254;51.680;5.394;2023-04-15T00:31:35;10.73;;;4.13;;
45522;SDS011;31254;51.680;5.394;2023-04-15T00:34:04;16.75;;;4.93;;
45522;SDS011;31254;51.680;5.394;2023-04-15T00:36:31;13.48;;;4.65;;
45522;SDS011;31254;51.680;5.394;2023-04-15T00:38:59;11.82;;;4.28;;
45522;SDS011;31254;51.680;5.394;2023-04-15T00:41:26;10.77;;;4.65;;
45522;SDS011;31254;51.680;5.394;2023-04-15T00:43:56;10.68;;;4.60;;
45522;SDS011;31254;51.680;5.394;2023-04-15T00:46:23;8.52;;;3.90;;
45522;SDS011;31254;51.680;5.394;2023-04-15T00:48:53;12.27;;;4.80;;
45522;SDS011;31254;51.680;5.394;2023-04-15T00:51:20;9.73;;;4.20;;
45522;SDS011;31254;51.680;5.394;2023-04-15T00:53:46;10.38;;;4.70;;
45522;SDS011;31254;51.680;5.394;2023-04-15T00:56:14;11.90;;;5.38;;
45522;SDS011;31254;51.680;5.394;2023-04-15T00:58:41;9.88;;;4.88;;
45522;SDS011;31254;51.680;5.394;2023-04-15T01:01:08;8.77;;;4.47;;
45522;SDS011;31254;51.680;5.394;2023-04-15T01:03:35;10.88;;;4.85;;
45522;SDS011;31254;51.680;5.394;2023-04-15T01:06:02;12.00;;;5.65;;
45522;SDS011;31254;51.680;5.394;2023-04-15T01:08:29;12.07;;;5.10;;
45522;SDS011;31254;51.680;5.394;2023-04-15T01:10:57;12.75;;;5.25;;
45522;SDS011;31254;51.680;5.394;2023-04-15T01:13:28;8.65;;;5.63;;
45522;SDS011;31254;51.680;5.394;2023-04-15T01:15:56;13.07;;;5.80;;
45522;SDS011;31254;51.680;5.394;2023-04-15T01:18:23;12.60;;;5.43;;
45522;SDS011;31254;51.680;5.394;2023-04-15T01:20:50;12.90;;;5.35;;
45522;SDS011;31254;51.680;5.394;2023-04-15T01:23:17;8.63;;;5.25;;
45522;SDS011;31254;51.680;5.394;2023-04-15T01:25:48;8.35;;;5.15;;
45522;SDS011;31254;51.680;5.394;2023-04-15T01:28:18;11.48;;;5.30;;
45522;SDS011;31254;51.680;5.394;2023-04-15T01:30:48;14.32;;;5.78;;
45522;SDS011;31254;51.680;5.394;2023-04-15T01:33:17;9.23;;;5.72;;
45522;SDS011;31254;51.680;5.394;2023-04-15T01:35:43;10.93;;;6.10;;
45522;SDS011;31254;51.680;5.394;2023-04-15T01:38:10;11.68;;;5.90;;
45522;SDS011;31254;51.680;5.394;2023-04-15T01:40:40;10.18;;;6.20;;
45522;SDS011;31254;51.680;5.394;2023-04-15T01:43:06;16.33;;;5.53;;
45522;SDS011;31254;51.680;5.394;2023-04-15T01:45:35;11.57;;;5.53;;
45522;SDS011;31254;51.680;5.394;2023-04-15T01:48:02;13.18;;;5.88;;
45522;SDS011;31254;51.680;5.394;2023-04-15T01:50:29;20.95;;;5.68;;
45522;SDS011;31254;51.680;5.394;2023-04-15T01:52:56;10.52;;;5.28;;
45522;SDS011;31254;51.680;5.394;2023-04-15T01:55:26;10.32;;;5.43;;
45522;SDS011;31254;51.680;5.394;2023-04-15T01:57:53;9.70;;;5.47;;
45522;SDS011;31254;51.680;5.394;2023-04-15T02:00:19;11.00;;;6.07;;
45522;SDS011;31254;51.680;5.394;2023-04-15T02:02:48;9.77;;;5.70;;
45522;SDS011;31254;51.680;5.394;2023-04-15T02:05:15;10.10;;;6.32;;
45522;SDS011;31254;51.680;5.394;2023-04-15T02:07:42;12.60;;;6.03;;
45522;SDS011;31254;51.680;5.394;2023-04-15T02:10:09;11.30;;;5.90;;
45522;SDS011;31254;51.680;5.394;2023-04-15T02:12:41;12.32;;;5.82;;
45522;SDS011;31254;51.680;5.394;2023-04-15T02:15:10;11.68;;;5.40;;
45522;SDS011;31254;51.680;5.394;2023-04-15T02:17:37;10.30;;;5.75;;
45522;SDS011;31254;51.680;5.394;2023-04-15T02:20:04;11.13;;;5.75;;
45522;SDS011;31254;51.680;5.394;2023-04-15T02:22:33;10.07;;;6.00;;
45522;SDS011;31254;51.680;5.394;2023-04-15T02:25:00;10.95;;;6.00;;
45522;SDS011;31254;51.680;5.394;2023-04-15T02:27:27;13.18;;;6.05;;
45522;SDS011;31254;51.680;5.394;2023-04-15T02:29:54;9.15;;;6.15;;
45522;SDS011;31254;51.680;5.394;2023-04-15T02:32:21;11.25;;;6.07;;
45522;SDS011;31254;51.680;5.394;2023-04-15T02:34:49;11.13;;;6.07;;
45522;SDS011;31254;51.680;5.394;2023-04-15T02:37:16;9.50;;;6.15;;
45522;SDS011;31254;51.680;5.394;2023-04-15T02:39:44;12.20;;;6.30;;
45522;SDS011;31254;51.680;5.394;2023-04-15T02:42:12;11.90;;;6.00;;
45522;SDS011;31254;51.680;5.394;2023-04-15T02:44:39;11.60;;;6.78;;
45522;SDS011;31254;51.680;5.394;2023-04-15T02:47:05;9.13;;;6.07;;
45522;SDS011;31254;51.680;5.394;2023-04-15T02:49:32;12.38;;;7.20;;
45522;SDS011;31254;51.680;5.394;2023-04-15T02:52:01;10.40;;;6.30;;
45522;SDS011;31254;51.680;5.394;2023-04-15T02:54:28;10.95;;;6.55;;
45522;SDS011;31254;51.680;5.394;2023-04-15T02:56:55;9.93;;;6.22;;
45522;SDS011;31254;51.680;5.394;2023-04-15T02:59:24;15.30;;;6.45;;
45522;SDS011;31254;51.680;5.394;2023-04-15T03:01:53;11.38;;;6.35;;
45522;SDS011;31254;51.680;5.394;2023-04-15T03:04:26;10.75;;;6.10;;
45522;SDS011;31254;51.680;5.394;2023-04-15T03:06:56;12.05;;;6.32;;
45522;SDS011;31254;51.680;5.394;2023-04-15T03:09:22;13.93;;;6.65;;
45522;SDS011;31254;51.680;5.394;2023-04-15T03:11:54;11.70;;;6.50;;
45522;SDS011;31254;51.680;5.394;2023-04-15T03:14:22;11.73;;;6.30;;
45522;SDS011;31254;51.680;5.394;2023-04-15T03:16:53;10.45;;;6.53;;
45522;SDS011;31254;51.680;5.394;2023-04-15T03:19:20;13.75;;;6.25;;
45522;SDS011;31254;51.680;5.394;2023-04-15T03:21:47;12.57;;;6.65;;
45522;SDS011;31254;51.680;5.394;2023-04-15T03:24:17;10.10;;;6.65;;
45522;SDS011;31254;51.680;5.394;2023-04-15T03:26:44;10.27;;;6.30;;
45522;SDS011;31254;51.680;5.394;2023-04-15T03:29:10;11.70;;;7.15;;
45522;SDS011;31254;51.680;5.394;2023-04-15T03:31:39;14.33;;;6.83;;
45522;SDS011;31254;51.680;5.394;2023-04-15T03:34:07;10.27;;;6.65;;
45522;SDS011;31254;51.680;5.394;2023-04-15T03:36:33;11.37;;;6.50;;
45522;SDS011;31254;51.680;5.394;2023-04-15T03:39:02;13.17;;;6.70;;
45522;SDS011;31254;51.680;5.394;2023-04-15T03:41:29;13.77;;;7.28;;
45522;SDS011;31254;51.680;5.394;2023-04-15T03:43:56;11.02;;;7.07;;
45522;SDS011;31254;51.680;5.394;2023-04-15T03:46:23;9.98;;;6.68;;
45522;SDS011;31254;51.680;5.394;2023-04-15T03:48:49;10.40;;;6.72;;
45522;SDS011;31254;51.680;5.394;2023-04-15T03:51:16;12.27;;;6.10;;
45522;SDS011;31254;51.680;5.394;2023-04-15T03:53:43;13.23;;;6.80;;
45522;SDS011;31254;51.680;5.394;2023-04-15T03:56:10;14.73;;;7.07;;
45522;SDS011;31254;51.680;5.394;2023-04-15T03:58:36;13.50;;;6.78;;
45522;SDS011;31254;51.680;5.394;2023-04-15T04:01:03;9.20;;;7.20;;
45522;SDS011;31254;51.680;5.394;2023-04-15T04:03:30;10.97;;;6.47;;
45522;SDS011;31254;51.680;5.394;2023-04-15T04:05:57;12.05;;;6.93;;
45522;SDS011;31254;51.680;5.394;2023-04-15T04:08:24;13.97;;;7.93;;
45522;SDS011;31254;51.680;5.394;2023-04-15T04:10:52;11.80;;;7.30;;
45522;SDS011;31254;51.680;5.394;2023-04-15T04:13:19;9.37;;;6.60;;
45522;SDS011;31254;51.680;5.394;2023-04-15T04:15:46;11.20;;;7.03;;
45522;SDS011;31254;51.680;5.394;2023-04-15T04:18:13;13.53;;;7.27;;
45522;SDS011;31254;51.680;5.394;2023-04-15T04:20:40;11.50;;;6.93;;
45522;SDS011;31254;51.680;5.394;2023-04-15T04:23:07;16.00;;;7.53;;
45522;SDS011;31254;51.680;5.394;2023-04-15T04:25:36;10.47;;;7.10;;
45522;SDS011;31254;51.680;5.394;2023-04-15T04:28:03;11.57;;;7.50;;
45522;SDS011;31254;51.680;5.394;2023-04-15T04:30:30;13.90;;;7.10;;
45522;SDS011;31254;51.680;5.394;2023-04-15T04:32:56;12.73;;;7.43;;
45522;SDS011;31254;51.680;5.394;2023-04-15T04:35:26;16.03;;;7.60;;
45522;SDS011;31254;51.680;5.394;2023-04-15T04:37:53;12.20;;;7.43;;
45522;SDS011;31254;51.680;5.394;2023-04-15T04:40:22;12.63;;;7.43;;
45522;SDS011;31254;51.680;5.394;2023-04-15T04:42:49;11.87;;;7.73;;
45522;SDS011;31254;51.680;5.394;2023-04-15T04:45:18;15.73;;;8.00;;
45522;SDS011;31254;51.680;5.394;2023-04-15T04:47:45;11.70;;;7.37;;
45522;SDS011;31254;51.680;5.394;2023-04-15T04:50:13;14.97;;;7.87;;
45522;SDS011;31254;51.680;5.394;2023-04-15T04:52:42;13.00;;;8.17;;
45522;SDS011;31254;51.680;5.394;2023-04-15T04:55:11;15.57;;;8.07;;
45522;SDS011;31254;51.680;5.394;2023-04-15T04:57:38;13.73;;;8.07;;
45522;SDS011;31254;51.680;5.394;2023-04-15T05:00:12;11.90;;;7.60;;
45522;SDS011;31254;51.680;5.394;2023-04-15T05:02:40;13.00;;;8.07;;
45522;SDS011;31254;51.680;5.394;2023-04-15T05:05:11;14.80;;;8.37;;
45522;SDS011;31254;51.680;5.394;2023-04-15T05:07:38;14.00;;;7.70;;
45522;SDS011;31254;51.680;5.394;2023-04-15T05:10:08;14.43;;;8.13;;
45522;SDS011;31254;51.680;5.394;2023-04-15T05:12:38;13.30;;;7.67;;
45522;SDS011;31254;51.680;5.394;2023-04-15T05:15:05;15.37;;;8.57;;
45522;SDS011;31254;51.680;5.394;2023-04-15T05:17:32;14.70;;;7.73;;
45522;SDS011;31254;51.680;5.394;2023-04-15T05:20:01;13.00;;;8.10;;
45522;SDS011;31254;51.680;5.394;2023-04-15T05:22:30;14.87;;;8.20;;
45522;SDS011;31254;51.680;5.394;2023-04-15T05:24:57;12.23;;;7.72;;
45522;SDS011;31254;51.680;5.394;2023-04-15T05:27:26;10.23;;;7.10;;
45522;SDS011;31254;51.680;5.394;2023-04-15T05:29:55;10.95;;;7.65;;
45522;SDS011;31254;51.680;5.394;2023-04-15T05:32:22;11.75;;;7.45;;
45522;SDS011;31254;51.680;5.394;2023-04-15T05:34:49;11.68;;;6.97;;
45522;SDS011;31254;51.680;5.394;2023-04-15T05:37:16;13.98;;;7.45;;
45522;SDS011;31254;51.680;5.394;2023-04-15T05:39:46;13.25;;;7.32;;
45522;SDS011;31254;51.680;5.394;2023-04-15T05:42:13;11.45;;;7.30;;
45522;SDS011;31254;51.680;5.394;2023-04-15T05:44:40;11.52;;;7.10;;
45522;SDS011;31254;51.680;5.394;2023-04-15T05:47:07;10.25;;;6.85;;
45522;SDS011;31254;51.680;5.394;2023-04-15T05:49:35;10.95;;;7.30;;
45522;SDS011;31254;51.680;5.394;2023-04-15T05:52:05;14.02;;;7.32;;
45522;SDS011;31254;51.680;5.394;2023-04-15T05:54:31;9.70;;;6.72;;
45522;SDS011;31254;51.680;5.394;2023-04-15T05:56:59;12.05;;;7.38;;
45522;SDS011;31254;51.680;5.394;2023-04-15T05:59:27;9.55;;;6.85;;
45522;SDS011;31254;51.680;5.394;2023-04-15T06:01:54;15.55;;;7.85;;
45522;SDS011;31254;51.680;5.394;2023-04-15T06:04:20;10.05;;;7.65;;
45522;SDS011;31254;51.680;5.394;2023-04-15T06:06:50;11.43;;;7.43;;
45522;SDS011;31254;51.680;5.394;2023-04-15T06:09:20;15.45;;;8.65;;
45522;SDS011;31254;51.680;5.394;2023-04-15T06:11:48;13.57;;;7.93;;
45522;SDS011;31254;51.680;5.394;2023-04-15T06:14:15;12.75;;;7.70;;
45522;SDS011;31254;51.680;5.394;2023-04-15T06:16:42;14.32;;;7.40;;
45522;SDS011;31254;51.680;5.394;2023-04-15T06:19:09;10.68;;;7.18;;
45522;SDS011;31254;51.680;5.394;2023-04-15T06:21:36;10.75;;;7.32;;
45522;SDS011;31254;51.680;5.394;2023-04-15T06:24:03;11.48;;;7.15;;
45522;SDS011;31254;51.680;5.394;2023-04-15T06:26:32;12.52;;;6.75;;
45522;SDS011;31254;51.680;5.394;2023-04-15T06:29:02;12.27;;;6.47;;
45522;SDS011;31254;51.680;5.394;2023-04-15T06:31:29;11.85;;;7.28;;
45522;SDS011;31254;51.680;5.394;2023-04-15T06:33:58;11.85;;;6.20;;
45522;SDS011;31254;51.680;5.394;2023-04-15T06:36:25;10.60;;;6.95;;
45522;SDS011;31254;51.680;5.394;2023-04-15T06:38:53;10.73;;;6.80;;
45522;SDS011;31254;51.680;5.394;2023-04-15T06:41:20;18.52;;;7.47;;
45522;SDS011;31254;51.680;5.394;2023-04-15T06:43:47;9.13;;;6.35;;
45522;SDS011;31254;51.680;5.394;2023-04-15T06:46:18;13.65;;;7.38;;
45522;SDS011;31254;51.680;5.394;2023-04-15T06:48:45;10.90;;;7.75;;
45522;SDS011;31254;51.680;5.394;2023-04-15T06:51:12;10.35;;;7.20;;
45522;SDS011;31254;51.680;5.394;2023-04-15T06:53:39;11.32;;;7.07;;
45522;SDS011;31254;51.680;5.394;2023-04-15T06:56:10;11.07;;;7.10;;
45522;SDS011;31254;51.680;5.394;2023-04-15T06:58:37;10.50;;;7.20;;
45522;SDS011;31254;51.680;5.394;2023-04-15T07:01:06;11.30;;;7.18;;
45522;SDS011;31254;51.680;5.394;2023-04-15T07:03:33;12.35;;;7.70;;
45522;SDS011;31254;51.680;5.394;2023-04-15T07:06:00;11.68;;;6.78;;
45522;SDS011;31254;51.680;5.394;2023-04-15T07:08:32;14.48;;;8.95;;
45522;SDS011;31254;51.680;5.394;2023-04-15T07:10:59;13.52;;;7.00;;
45522;SDS011;31254;51.680;5.394;2023-04-15T07:13:29;11.60;;;7.55;;
45522;SDS011;31254;51.680;5.394;2023-04-15T07:15:59;12.50;;;7.70;;
45522;SDS011;31254;51.680;5.394;2023-04-15T07:18:28;10.10;;;6.95;;
45522;SDS011;31254;51.680;5.394;2023-04-15T07:20:55;11.02;;;7.07;;
45522;SDS011;31254;51.680;5.394;2023-04-15T07:23:22;8.90;;;6.75;;
45522;SDS011;31254;51.680;5.394;2023-04-15T07:25:51;10.93;;;7.25;;
45522;SDS011;31254;51.680;5.394;2023-04-15T07:28:21;12.60;;;7.32;;
45522;SDS011;31254;51.680;5.394;2023-04-15T07:30:48;10.75;;;6.72;;
45522;SDS011;31254;51.680;5.394;2023-04-15T07:33:15;13.43;;;7.15;;
45522;SDS011;31254;51.680;5.394;2023-04-15T07:35:44;11.40;;;6.50;;
45522;SDS011;31254;51.680;5.394;2023-04-15T07:38:12;11.32;;;6.70;;
45522;SDS011;31254;51.680;5.394;2023-04-15T07:40:39;9.88;;;7.03;;
45522;SDS011;31254;51.680;5.394;2023-04-15T07:43:06;10.18;;;6.25;;
45522;SDS011;31254;51.680;5.394;2023-04-15T07:45:34;9.23;;;6.10;;
45522;SDS011;31254;51.680;5.394;2023-04-15T07:48:01;10.15;;;6.53;;
45522;SDS011;31254;51.680;5.394;2023-04-15T07:50:28;10.10;;;6.30;;
45522;SDS011;31254;51.680;5.394;2023-04-15T07:52:55;8.18;;;6.07;;
45522;SDS011;31254;51.680;5.394;2023-04-15T07:55:22;9.57;;;6.28;;
45522;SDS011;31254;51.680;5.394;2023-04-15T07:57:50;9.45;;;6.70;;
45522;SDS011;31254;51.680;5.394;2023-04-15T08:00:17;9.73;;;7.10;;
45522;SDS011;31254;51.680;5.394;2023-04-15T08:02:46;9.18;;;6.25;;
45522;SDS011;31254;51.680;5.394;2023-04-15T08:05:13;8.88;;;6.25;;
45522;SDS011;31254;51.680;5.394;2023-04-15T08:07:41;10.60;;;6.00;;
45522;SDS011;31254;51.680;5.394;2023-04-15T08:10:07;6.75;;;4.95;;
45522;SDS011;31254;51.680;5.394;2023-04-15T08:12:38;8.07;;;5.60;;
45522;SDS011;31254;51.680;5.394;2023-04-15T08:15:06;7.60;;;4.22;;
45522;SDS011;31254;51.680;5.394;2023-04-15T08:17:34;7.57;;;5.37;;
45522;SDS011;31254;51.680;5.394;2023-04-15T08:20:03;7.43;;;4.60;;
45522;SDS011;31254;51.680;5.394;2023-04-15T08:22:31;7.40;;;4.93;;
45522;SDS011;31254;51.680;5.394;2023-04-15T08:24:57;7.55;;;4.75;;
45522;SDS011;31254;51.680;5.394;2023-04-15T08:27:25;6.68;;;4.13;;
45522;SDS011;31254;51.680;5.394;2023-04-15T08:29:51;7.10;;;4.72;;
45522;SDS011;31254;51.680;5.394;2023-04-15T08:32:21;9.05;;;5.10;;
45522;SDS011;31254;51.680;5.394;2023-04-15T08:34:48;7.82;;;4.72;;
45522;SDS011;31254;51.680;5.394;2023-04-15T08:37:15;9.07;;;4.40;;
45522;SDS011;31254;51.680;5.394;2023-04-15T08:39:42;5.95;;;4.05;;
45522;SDS011;31254;51.680;5.394;2023-04-15T08:42:11;6.00;;;4.32;;
45522;SDS011;31254;51.680;5.394;2023-04-15T08:44:43;6.80;;;4.38;;
45522;SDS011;31254;51.680;5.394;2023-04-15T08:47:12;6.63;;;3.53;;
45522;SDS011;31254;51.680;5.394;2023-04-15T08:49:42;7.13;;;4.47;;
45522;SDS011;31254;51.680;5.394;2023-04-15T08:52:09;7.78;;;4.38;;
45522;SDS011;31254;51.680;5.394;2023-04-15T08:54:37;7.30;;;4.38;;
45522;SDS011;31254;51.680;5.394;2023-04-15T08:57:04;6.18;;;3.92;;
45522;SDS011;31254;51.680;5.394;2023-04-15T08:59:32;7.10;;;4.70;;
45522;SDS011;31254;51.680;5.394;2023-04-15T09:02:03;6.97;;;4.05;;
45522;SDS011;31254;51.680;5.394;2023-04-15T09:04:33;6.88;;;3.72;;
45522;SDS011;31254;51.680;5.394;2023-04-15T09:07:00;5.35;;;3.72;;
45522;SDS011;31254;51.680;5.394;2023-04-15T09:09:27;7.05;;;2.80;;
45522;SDS011;31254;51.680;5.394;2023-04-15T09:11:57;6.85;;;3.58;;
45522;SDS011;31254;51.680;5.394;2023-04-15T09:14:23;5.00;;;2.28;;
45522;SDS011;31254;51.680;5.394;2023-04-15T09:17:03;5.55;;;2.72;;
45522;SDS011;31254;51.680;5.394;2023-04-15T09:19:33;7.82;;;3.20;;
45522;SDS011;31254;51.680;5.394;2023-04-15T09:22:02;4.93;;;2.65;;
45522;SDS011;31254;51.680;5.394;2023-04-15T09:24:50;5.65;;;3.15;;
45522;SDS011;31254;51.680;5.394;2023-04-15T09:27:26;3.72;;;2.20;;
45522;SDS011;31254;51.680;5.394;2023-04-15T09:30:09;4.28;;;3.20;;
45522;SDS011;31254;51.680;5.394;2023-04-15T09:32:50;4.82;;;3.08;;
45522;SDS011;31254;51.680;5.394;2023-04-15T09:35:20;4.68;;;2.80;;
45522;SDS011;31254;51.680;5.394;2023-04-15T09:37:53;5.10;;;3.20;;
45522;SDS011;31254;51.680;5.394;2023-04-15T09:40:37;5.55;;;3.72;;
45522;SDS011;31254;51.680;5.394;2023-04-15T09:43:09;8.32;;;2.97;;
45522;SDS011;31254;51.680;5.394;2023-04-15T09:45:38;5.85;;;3.17;;
45522;SDS011;31254;51.680;5.394;2023-04-15T09:48:19;4.13;;;2.63;;
45522;SDS011;31254;51.680;5.394;2023-04-15T09:50:52;6.28;;;2.75;;
45522;SDS011;31254;51.680;5.394;2023-04-15T09:53:20;5.85;;;3.50;;
45522;SDS011;31254;51.680;5.394;2023-04-15T09:55:51;6.90;;;3.13;;
45522;SDS011;31254;51.680;5.394;2023-04-15T09:58:22;7.38;;;3.33;;
45522;SDS011;31254;51.680;5.394;2023-04-15T10:00:55;5.15;;;2.80;;
45522;SDS011;31254;51.680;5.394;2023-04-15T10:03:31;6.28;;;2.70;;
45522;SDS011;31254;51.680;5.394;2023-04-15T10:06:02;4.25;;;2.67;;
45522;SDS011;31254;51.680;5.394;2023-04-15T10:08:30;6.60;;;3.17;;
45522;SDS011;31254;51.680;5.394;2023-04-15T10:11:01;4.57;;;2.95;;
45522;SDS011;31254;51.680;5.394;2023-04-15T10:13:30;5.78;;;3.22;;
45522;SDS011;31254;51.680;5.394;2023-04-15T10:16:06;5.47;;;3.20;;
45522;SDS011;31254;51.680;5.394;2023-04-15T10:18:37;8.40;;;3.95;;
45522;SDS011;31254;51.680;5.394;2023-04-15T10:21:08;5.25;;;3.50;;
45522;SDS011;31254;51.680;5.394;2023-04-15T10:23:39;5.47;;;3.38;;
45522;SDS011;31254;51.680;5.394;2023-04-15T10:26:06;4.55;;;3.50;;
45522;SDS011;31254;51.680;5.394;2023-04-15T10:28:33;7.18;;;3.92;;
45522;SDS011;31254;51.680;5.394;2023-04-15T10:31:00;5.20;;;3.13;;
45522;SDS011;31254;51.680;5.394;2023-04-15T10:33:27;6.82;;;4.22;;
45522;SDS011;31254;51.680;5.394;2023-04-15T10:35:59;8.52;;;3.55;;
45522;SDS011;31254;51.680;5.394;2023-04-15T10:38:33;7.15;;;3.80;;
45522;SDS011;31254;51.680;5.394;2023-04-15T10:41:11;7.65;;;2.90;;
45522;SDS011;31254;51.680;5.394;2023-04-15T10:43:50;6.70;;;4.43;;
45522;SDS011;31254;51.680;5.394;2023-04-15T10:46:22;6.13;;;2.58;;
45522;SDS011;31254;51.680;5.394;2023-04-15T10:49:11;3.28;;;1.80;;
45522;SDS011;31254;51.680;5.394;2023-04-15T10:51:43;4.40;;;2.22;;
45522;SDS011;31254;51.680;5.394;2023-04-15T10:54:13;3.67;;;2.25;;
45522;SDS011;31254;51.680;5.394;2023-04-15T10:56:40;4.20;;;2.63;;
45522;SDS011;31254;51.680;5.394;2023-04-15T10:59:10;4.40;;;2.90;;
45522;SDS011;31254;51.680;5.394;2023-04-15T11:01:53;6.47;;;2.17;;
45522;SDS011;31254;51.680;5.394;2023-04-15T11:04:50;3.45;;;2.03;;
45522;SDS011;31254;51.680;5.394;2023-04-15T11:10:02;3.83;;;2.40;;
45522;SDS011;31254;51.680;5.394;2023-04-15T11:12:53;3.00;;;1.95;;
45522;SDS011;31254;51.680;5.394;2023-04-15T11:15:35;2.60;;;1.65;;
45522;SDS011;31254;51.680;5.394;2023-04-15T11:18:19;4.47;;;2.35;;
45522;SDS011;31254;51.680;5.394;2023-04-15T11:25:57;5.55;;;2.67;;
45522;SDS011;31254;51.680;5.394;2023-04-15T11:28:26;3.40;;;1.95;;
45522;SDS011;31254;51.680;5.394;2023-04-15T11:31:14;3.20;;;1.80;;
45522;SDS011;31254;51.680;5.394;2023-04-15T11:33:52;2.10;;;1.40;;
45522;SDS011;31254;51.680;5.394;2023-04-15T11:36:19;3.63;;;1.58;;
45522;SDS011;31254;51.680;5.394;2023-04-15T11:38:49;5.03;;;3.00;;
45522;SDS011;31254;51.680;5.394;2023-04-15T11:41:19;6.85;;;2.05;;
45522;SDS011;31254;51.680;5.394;2023-04-15T11:43:49;3.28;;;1.90;;
45522;SDS011;31254;51.680;5.394;2023-04-15T11:46:16;4.00;;;2.55;;
45522;SDS011;31254;51.680;5.394;2023-04-15T11:48:44;4.95;;;2.78;;
45522;SDS011;31254;51.680;5.394;2023-04-15T11:51:15;5.00;;;2.63;;
45522;SDS011;31254;51.680;5.394;2023-04-15T11:56:10;5.90;;;2.45;;
45522;SDS011;31254;51.680;5.394;2023-04-15T11:58:46;4.85;;;2.35;;
45522;SDS011;31254;51.680;5.394;2023-04-15T12:01:16;4.15;;;2.20;;
45522;SDS011;31254;51.680;5.394;2023-04-15T12:03:46;3.10;;;2.17;;
45522;SDS011;31254;51.680;5.394;2023-04-15T12:06:18;3.60;;;1.83;;
45522;SDS011;31254;51.680;5.394;2023-04-15T12:11:33;2.47;;;1.88;;
45522;SDS011;31254;51.680;5.394;2023-04-15T12:14:15;4.70;;;1.23;;
45522;SDS011;31254;51.680;5.394;2023-04-15T12:16:47;4.88;;;1.90;;
45522;SDS011;31254;51.680;5.394;2023-04-15T12:19:21;2.75;;;1.70;;
45522;SDS011;31254;51.680;5.394;2023-04-15T12:21:58;2.88;;;1.60;;
45522;SDS011;31254;51.680;5.394;2023-04-15T12:24:27;3.53;;;1.80;;
45522;SDS011;31254;51.680;5.394;2023-04-15T12:27:07;5.47;;;1.88;;
45522;SDS011;31254;51.680;5.394;2023-04-15T12:29:42;5.13;;;2.35;;
45522;SDS011;31254;51.680;5.394;2023-04-15T12:32:14;4.63;;;2.40;;
45522;SDS011;31254;51.680;5.394;2023-04-15T12:34:43;4.85;;;2.38;;
45522;SDS011;31254;51.680;5.394;2023-04-15T12:37:23;7.00;;;2.25;;
45522;SDS011;31254;51.680;5.394;2023-04-15T12:39:51;3.33;;;1.70;;
45522;SDS011;31254;51.680;5.394;2023-04-15T12:42:19;3.15;;;1.30;;
45522;SDS011;31254;51.680;5.394;2023-04-15T12:44:45;2.38;;;1.58;;
45522;SDS011;31254;51.680;5.394;2023-04-15T12:47:12;2.97;;;1.08;;
45522;SDS011;31254;51.680;5.394;2023-04-15T12:49:44;8.63;;;1.67;;
45522;SDS011;31254;51.680;5.394;2023-04-15T12:52:11;3.58;;;1.80;;
45522;SDS011;31254;51.680;5.394;2023-04-15T12:54:38;1.95;;;1.15;;
45522;SDS011;31254;51.680;5.394;2023-04-15T12:57:05;2.55;;;1.48;;
45522;SDS011;31254;51.680;5.394;2023-04-15T12:59:33;3.35;;;1.50;;
45522;SDS011;31254;51.680;5.394;2023-04-15T13:02:00;2.50;;;1.52;;
45522;SDS011;31254;51.680;5.394;2023-04-15T13:04:28;1.60;;;1.10;;
45522;SDS011;31254;51.680;5.394;2023-04-15T13:07:00;2.38;;;1.30;;
45522;SDS011;31254;51.680;5.394;2023-04-15T13:09:27;2.33;;;1.42;;
45522;SDS011;31254;51.680;5.394;2023-04-15T13:11:54;3.05;;;1.50;;
45522;SDS011;31254;51.680;5.394;2023-04-15T13:14:25;2.95;;;1.60;;
45522;SDS011;31254;51.680;5.394;2023-04-15T13:16:52;2.85;;;1.85;;
45522;SDS011;31254;51.680;5.394;2023-04-15T13:19:19;4.70;;;1.88;;
45522;SDS011;31254;51.680;5.394;2023-04-15T13:21:45;3.42;;;1.73;;
45522;SDS011;31254;51.680;5.394;2023-04-15T13:24:12;2.42;;;0.90;;
45522;SDS011;31254;51.680;5.394;2023-04-15T13:26:39;3.50;;;0.95;;
45522;SDS011;31254;51.680;5.394;2023-04-15T13:29:05;3.55;;;1.20;;
45522;SDS011;31254;51.680;5.394;2023-04-15T13:31:34;2.67;;;1.55;;
45522;SDS011;31254;51.680;5.394;2023-04-15T13:34:01;2.45;;;1.13;;
45522;SDS011;31254;51.680;5.394;2023-04-15T13:36:28;3.40;;;1.25;;
45522;SDS011;31254;51.680;5.394;2023-04-15T13:38:55;2.90;;;1.20;;
45522;SDS011;31254;51.680;5.394;2023-04-15T13:41:22;10.30;;;0.93;;
45522;SDS011;31254;51.680;5.394;2023-04-15T13:43:49;2.42;;;1.00;;
45522;SDS011;31254;51.680;5.394;2023-04-15T13:46:18;2.55;;;1.05;;
45522;SDS011;31254;51.680;5.394;2023-04-15T13:48:45;5.72;;;1.33;;
45522;SDS011;31254;51.680;5.394;2023-04-15T13:51:11;1.83;;;0.95;;
45522;SDS011;31254;51.680;5.394;2023-04-15T13:53:38;2.63;;;0.80;;
45522;SDS011;31254;51.680;5.394;2023-04-15T13:56:06;10.07;;;1.13;;
45522;SDS011;31254;51.680;5.394;2023-04-15T13:58:33;3.15;;;1.10;;
45522;SDS011;31254;51.680;5.394;2023-04-15T14:00:59;2.63;;;1.10;;
45522;SDS011;31254;51.680;5.394;2023-04-15T14:03:29;3.65;;;1.05;;
45522;SDS011;31254;51.680;5.394;2023-04-15T14:05:56;5.18;;;1.15;;
45522;SDS011;31254;51.680;5.394;2023-04-15T14:08:25;1.95;;;1.10;;
45522;SDS011;31254;51.680;5.394;2023-04-15T14:10:51;3.53;;;1.02;;
45522;SDS011;31254;51.680;5.394;2023-04-15T14:13:18;1.65;;;0.95;;
45522;SDS011;31254;51.680;5.394;2023-04-15T14:15:45;2.97;;;1.30;;
45522;SDS011;31254;51.680;5.394;2023-04-15T14:18:15;2.53;;;1.20;;
45522;SDS011;31254;51.680;5.394;2023-04-15T14:20:42;3.60;;;1.30;;
45522;SDS011;31254;51.680;5.394;2023-04-15T14:23:08;4.75;;;1.30;;
45522;SDS011;31254;51.680;5.394;2023-04-15T14:25:35;2.28;;;1.33;;
45522;SDS011;31254;51.680;5.394;2023-04-15T14:28:04;3.10;;;1.20;;
45522;SDS011;31254;51.680;5.394;2023-04-15T14:30:31;3.72;;;1.23;;
45522;SDS011;31254;51.680;5.394;2023-04-15T14:32:58;2.97;;;0.90;;
45522;SDS011;31254;51.680;5.394;2023-04-15T14:35:25;3.55;;;1.30;;
45522;SDS011;31254;51.680;5.394;2023-04-15T14:37:52;1.75;;;0.80;;
45522;SDS011;31254;51.680;5.394;2023-04-15T14:40:22;3.10;;;1.45;;
45522;SDS011;31254;51.680;5.394;2023-04-15T14:42:48;3.60;;;0.82;;
45522;SDS011;31254;51.680;5.394;2023-04-15T14:45:15;4.53;;;1.42;;
45522;SDS011;31254;51.680;5.394;2023-04-15T14:47:43;5.28;;;0.93;;
45522;SDS011;31254;51.680;5.394;2023-04-15T14:50:10;3.70;;;0.98;;
45522;SDS011;31254;51.680;5.394;2023-04-15T14:52:36;0.47;;;0.47;;
45522;SDS011;31254;51.680;5.394;2023-04-15T14:55:09;2.25;;;1.08;;
45522;SDS011;31254;51.680;5.394;2023-04-15T14:57:39;5.50;;;0.85;;
45522;SDS011;31254;51.680;5.394;2023-04-15T15:00:07;3.50;;;1.02;;
45522;SDS011;31254;51.680;5.394;2023-04-15T15:02:35;1.63;;;0.57;;
45522;SDS011;31254;51.680;5.394;2023-04-15T15:05:08;1.75;;;0.93;;